^^
Station Historical Data
Daily Summary for January 21, 2017 Units:  Metric    English   Both
« Previous Day
Next Day »
Daily Weekly Monthly Yearly Custom
  High: Low: Average:
Temperature: 38.5 °C 15.9 °C 24.6 °C
Dew Point: 6 °C 0.7 °C 3.2 °C
Humidity: 48% 11% 28%
Wind Speed: 32km/h 0km/h 10.8km/h
Wind Gust: 37km/h - -
Wind- - SW
Pressure: 1008.7 hPa 1002.6 hPa -
Precipitation: 0 mm    
Historical Graphs
 
 
Tabular Data for January 21, 2017
Time Temperature Dew Point Pressure Wind Wind Speed Wind Gust Humidity Rainfall Rate (Hourly) solar Conditions
00:04 21.8 °C 2.5 °C 1008.7 hPa SSW 25.9 km/h 25.9 km/h 28% 0 mm 0.0 W/m2
00:09 21.7 °C 2.9 °C 1008.7 hPa SSW 20.9 km/h 29 km/h 29% 0 mm 0.0 W/m2
00:15 21.7 °C 2.9 °C 1008.7 hPa SSW 22.7 km/h 27.4 km/h 29% 0 mm 0.0 W/m2
00:24 21.5 °C 3.2 °C 1008.7 hPa SSW 11.1 km/h 25.7 km/h 30% 0 mm 0.0 W/m2
00:29 21.4 °C 3.1 °C 1008.4 hPa SSW 19.5 km/h 25.7 km/h 30% 0 mm 0.0 W/m2
00:35 21.4 °C 3.1 °C 1008.4 hPa SSW 20.9 km/h 22.5 km/h 30% 0 mm 0.0 W/m2
00:45 21.2 °C 2.5 °C 1008.4 hPa SSW 16.3 km/h 24.1 km/h 29% 0 mm 0.0 W/m2
00:50 21.2 °C 2.5 °C 1008.4 hPa SSW 17.7 km/h 22.5 km/h 29% 0 mm 0.0 W/m2
00:55 21.1 °C 2.4 °C 1008.4 hPa SSW 17.7 km/h 22.5 km/h 29% 0 mm 0.0 W/m2
01:00 21.1 °C 2.4 °C 1008.4 hPa SSW 16.3 km/h 27.4 km/h 29% 0 mm 0.0 W/m2
01:05 21.1 °C 2.8 °C 1008.4 hPa SSW 14.3 km/h 22.5 km/h 30% 0 mm 0.0 W/m2
01:15 20.8 °C 3 °C 1008.4 hPa SSW 13 km/h 20.9 km/h 31% 0 mm 0.0 W/m2
01:20 20.7 °C 3 °C 1008.4 hPa SSW 19.5 km/h 19.5 km/h 31% 0 mm 0.0 W/m2
01:25 20.7 °C 2.5 °C 1008.4 hPa SSW 20.9 km/h 20.9 km/h 30% 0 mm 0.0 W/m2
01:30 20.7 °C 2 °C 1008.4 hPa SW 14.3 km/h 19.3 km/h 29% 0 mm 0.0 W/m2
01:35 20.7 °C 2 °C 1008.4 hPa SW 17.7 km/h 25.7 km/h 29% 0 mm 0.0 W/m2
01:40 20.7 °C 2 °C 1008.4 hPa SSW 22.7 km/h 22.7 km/h 29% 0 mm 0.0 W/m2
01:45 20.7 °C 2 °C 1008.4 hPa SSW 19.5 km/h 22.5 km/h 29% 0 mm 0.0 W/m2
01:50 20.7 °C 2 °C 1008.4 hPa SW 11.1 km/h 19.3 km/h 29% 0 mm 0.0 W/m2
01:55 20.6 °C 1.9 °C 1008.4 hPa SW 16.3 km/h 19.3 km/h 29% 0 mm 0.0 W/m2
02:00 20.4 °C 2.2 °C 1008.4 hPa SW 11.1 km/h 16.1 km/h 30% 0 mm 0.0 W/m2
02:10 20.2 °C 2.1 °C 1008 hPa SW 13 km/h 19.3 km/h 30% 0 mm 0.0 W/m2
02:15 20.2 °C 2.1 °C 1008 hPa SSW 14.3 km/h 17.7 km/h 30% 0 mm 0.0 W/m2
02:20 20.1 °C 2 °C 1008 hPa SSW 11.1 km/h 24.1 km/h 30% 0 mm 0.0 W/m2
02:25 20 °C 2.4 °C 1008 hPa SSW 16.3 km/h 19.3 km/h 31% 0 mm 0.0 W/m2
02:30 19.9 °C 2.3 °C 1008.4 hPa SSW 13 km/h 14.5 km/h 31% 0 mm 0.0 W/m2
02:35 19.8 °C 2.2 °C 1008 hPa SSW 11.1 km/h 12.9 km/h 31% 0 mm 0.0 W/m2
02:40 19.7 °C 2.5 °C 1008 hPa SSW 11.1 km/h 12.9 km/h 32% 0 mm 0.0 W/m2
02:45 19.7 °C 2.5 °C 1008.4 hPa SSW 9.7 km/h 11.3 km/h 32% 0 mm 0.0 W/m2
02:50 19.6 °C 2.5 °C 1008 hPa SSW 7.9 km/h 12.9 km/h 32% 0 mm 0.0 W/m2
03:00 19.4 °C 2.7 °C 1008 hPa SSW 9.7 km/h 12.9 km/h 33% 0 mm 0.0 W/m2
03:06 19.3 °C 2.6 °C 1008 hPa SSW 7.9 km/h 12.9 km/h 33% 0 mm 0.0 W/m2
03:11 19.2 °C 2.5 °C 1008 hPa SSW 11.1 km/h 14.5 km/h 33% 0 mm 0.0 W/m2
03:16 19.2 °C 3 °C 1008 hPa SSW 11.1 km/h 14.5 km/h 34% 0 mm 0.0 W/m2
03:21 19.1 °C 2.9 °C 1007.7 hPa SSW 9.7 km/h 12.9 km/h 34% 0 mm 0.0 W/m2
03:26 19 °C 3.2 °C 1007.7 hPa SSW 9.7 km/h 12.9 km/h 35% 0 mm 0.0 W/m2
03:31 18.9 °C 3.1 °C 1007.7 hPa SSW 14.3 km/h 14.5 km/h 35% 0 mm 0.0 W/m2
03:36 18.9 °C 3.1 °C 1007.7 hPa SSW 9.7 km/h 12.9 km/h 35% 0 mm 0.0 W/m2
03:41 18.8 °C 3.4 °C 1007.7 hPa SSW 9.7 km/h 11.3 km/h 36% 0 mm 0.0 W/m2
03:46 18.8 °C 3.4 °C 1007.7 hPa SSW 9.7 km/h 11.3 km/h 36% 0 mm 0.0 W/m2
03:51 18.7 °C 3.7 °C 1007.7 hPa SSW 9.7 km/h 12.9 km/h 37% 0 mm 0.0 W/m2
03:56 18.6 °C 3.6 °C 1007.7 hPa SSW 9.7 km/h 12.9 km/h 37% 0 mm 0.0 W/m2
04:01 18.5 °C 3.9 °C 1007.7 hPa SSW 6.4 km/h 11.3 km/h 38% 0 mm 0.0 W/m2
04:11 18.3 °C 4.1 °C 1007.3 hPa SSW 9.7 km/h 11.3 km/h 39% 0 mm 0.0 W/m2
04:21 18.3 °C 4.5 °C 1007.3 hPa SSW 13 km/h 13 km/h 40% 0 mm 0.0 W/m2
04:26 18.2 °C 4.7 °C 1007.3 hPa SSW 7.9 km/h 14.5 km/h 41% 0 mm 0.0 W/m2
04:32 18.2 °C 4.7 °C 1007.3 hPa SSW 9.7 km/h 11.3 km/h 41% 0 mm 0.0 W/m2
04:42 18.1 °C 5 °C 1007.3 hPa SSW 7.9 km/h 11.3 km/h 42% 0 mm 0.0 W/m2
04:47 18 °C 4.9 °C 1007.3 hPa SSW 13 km/h 13 km/h 42% 0 mm 0.0 W/m2
04:52 17.9 °C 4.8 °C 1007.3 hPa SSW 6.4 km/h 9.7 km/h 42% 0 mm 0.0 W/m2
04:57 17.9 °C 4.8 °C 1007.3 hPa SSW 7.9 km/h 9.7 km/h 42% 0 mm 0.0 W/m2
05:02 17.8 °C 4.7 °C 1007.3 hPa SSW 6.4 km/h 8 km/h 42% 0 mm 0.0 W/m2
05:07 17.8 °C 4.7 °C 1007.7 hPa SSW 6.4 km/h 8 km/h 42% 0 mm 0.0 W/m2
05:12 17.7 °C 5 °C 1007.7 hPa SSW 7.9 km/h 8 km/h 43% 0 mm 0.0 W/m2
05:17 17.6 °C 4.9 °C 1007.7 hPa Calm   4.8 km/h 43% 0 mm 0.0 W/m2
05:22 17.4 °C 4.7 °C 1007.7 hPa Calm     43% 0 mm 0.0 W/m2
05:27 17.2 °C 4.8 °C 1007.7 hPa Calm     44% 0 mm 0.0 W/m2
05:32 17.3 °C 4.9 °C 1007.7 hPa Calm     44% 0 mm 0.0 W/m2
05:42 16.9 °C 4.9 °C 1008 hPa Calm     45% 0 mm 0.0 W/m2
05:47 16.8 °C 4.8 °C 1008 hPa Calm     45% 0 mm 0.0 W/m2
05:52 16.6 °C 4.6 °C 1008 hPa Calm     45% 0 mm 0.0 W/m2
06:02 16.3 °C 4.7 °C 1008 hPa Calm     46% 0 mm 0.0 W/m2
06:13 16.1 °C 4.8 °C 1008 hPa Calm     47% 0 mm 5.0 W/m2
06:18 15.9 °C 4.6 °C 1008.4 hPa Calm     47% 0 mm 7.0 W/m2
06:29 15.9 °C 4.9 °C 1008.4 hPa Calm     48% 0 mm 14.0 W/m2
06:36 15.9 °C 4.9 °C 1008.4 hPa Calm     48% 0 mm 18.0 W/m2
06:59 16.9 °C 5.2 °C 1008.4 hPa Calm     46% 0 mm 67.0 W/m2
07:29 18.9 °C 6 °C 1008.4 hPa Calm     43% 0 mm 185.0 W/m2
07:45 19.4 °C 5.8 °C 1008.7 hPa Calm     41% 0 mm 246.0 W/m2
08:00 20 °C 6 °C 1008.4 hPa WSW 9.7 km/h 11.3 km/h 40% 0 mm 302.0 W/m2
08:30 21.2 °C 5.9 °C 1008.4 hPa WSW 4.7 km/h 9.7 km/h 37% 0 mm 406.0 W/m2
08:57 22.6 °C 5.1 °C 1008.7 hPa Calm     32% 0 mm 503.0 W/m2
09:12 23.6 °C 5 °C 1008.4 hPa Calm     30% 0 mm 550.0 W/m2
09:27 24.4 °C 4.7 °C 1008.7 hPa Calm     28% 0 mm 601.0 W/m2
09:43 25.2 °C 4.9 °C 1008.4 hPa Calm     27% 0 mm 652.0 W/m2
10:13 27.3 °C 3.7 °C 1008.7 hPa Calm   6.4 km/h 22% 0 mm 740.0 W/m2
10:44 28.2 °C 3.1 °C 1008.4 hPa Calm   11.3 km/h 20% 0 mm 817.0 W/m2
10:58 28.8 °C 2.9 °C 1008.4 hPa NNW 6.4 km/h 14.5 km/h 19% 0 mm 853.0 W/m2
12:20 31.2 °C 2.4 °C 1007.7 hPa NNW 1.4 km/h 12.9 km/h 16% 0 mm 969.0 W/m2
13:05 32.7 °C 0.7 °C 1007.3 hPa NW 14.3 km/h 22.5 km/h 13% 0 mm 984.0 W/m2
13:16 33.4 °C 1.2 °C 1007 hPa NNW 7.9 km/h 20.9 km/h 13% 0 mm 983.0 W/m2
13:30 34 °C 1.7 °C 1006.7 hPa NW 6.4 km/h 22.5 km/h 13% 0 mm 976.0 W/m2
13:41 34.4 °C 0.9 °C 1006.7 hPa NNW 14.3 km/h 20.9 km/h 12% 0 mm 970.0 W/m2
13:58 34.4 °C 2 °C 1006.3 hPa NNW 3.2 km/h 20.9 km/h 13% 0 mm 958.0 W/m2
16:08 37.7 °C 2.2 °C 1004.3 hPa NW 19.5 km/h 24.1 km/h 11% 0 mm 700.0 W/m2
16:23 37.7 °C 2.2 °C 1003.9 hPa NNW 11.1 km/h 12.9 km/h 11% 0 mm 657.0 W/m2
16:28 37.8 °C 2.3 °C 1003.9 hPa NNW 1.4 km/h 1.6 km/h 11% 0 mm 642.0 W/m2
16:57 38.4 °C 2.7 °C 1003.3 hPa NW 22.7 km/h 29 km/h 11% 0 mm 541.0 W/m2
17:02 38.3 °C 2.7 °C 1002.9 hPa Calm   22.5 km/h 11% 0 mm 527.0 W/m2
17:17 38.5 °C 2.8 °C 1002.9 hPa NNW 9.7 km/h 24.1 km/h 11% 0 mm 473.0 W/m2
17:27 38.3 °C 2.7 °C 1002.9 hPa NW 9.7 km/h 20.9 km/h 11% 0 mm 445.0 W/m2
18:19 38.2 °C 2.6 °C 1002.6 hPa Calm     11% 0 mm 257.0 W/m2
18:24 38.1 °C 2.5 °C 1002.6 hPa WNW 13 km/h 20.9 km/h 11% 0 mm 241.0 W/m2
18:49 37.7 °C 2.2 °C 1002.9 hPa Calm     11% 0 mm 128.0 W/m2
19:00 37.7 °C 2.2 °C 1002.9 hPa Calm     11% 0 mm 88.0 W/m2
19:05 37.7 °C 2.2 °C 1002.9 hPa Calm   9.7 km/h 11% 0 mm 72.0 W/m2
19:14 37.6 °C 2.1 °C 1002.9 hPa Calm     11% 0 mm 32.0 W/m2
19:20 37.4 °C 2 °C 1002.9 hPa Calm     11% 0 mm 23.0 W/m2
19:25 36.8 °C 3.9 °C 1002.9 hPa WSW 24.1 km/h 33.8 km/h 13% 0 mm 19.0 W/m2
19:30 35.5 °C 3.9 °C 1003.3 hPa SSW 32 km/h 33.8 km/h 14% 0 mm 16.0 W/m2
19:35 34.4 °C 3.1 °C 1003.6 hPa SW 28.8 km/h 35.4 km/h 14% 0 mm 12.0 W/m2
19:41 33.8 °C 3.6 °C 1003.6 hPa SSW 27.4 km/h 37 km/h 15% 0 mm 9.0 W/m2
19:47 33.4 °C 3.2 °C 1003.9 hPa SSW 17.7 km/h 27.4 km/h 15% 0 mm 5.0 W/m2
20:06 32.1 °C 3.1 °C 1004.3 hPa SW 17.7 km/h 25.7 km/h 16% 0 mm 0.0 W/m2
20:15 31.7 °C 2.8 °C 1004.6 hPa SW 17.7 km/h 30.6 km/h 16% 0 mm 0.0 W/m2
20:31 31.2 °C 2.4 °C 1004.6 hPa SSW 20.9 km/h 22.5 km/h 16% 0 mm 0.0 W/m2
20:37 31 °C 2.2 °C 1004.6 hPa SW 17.7 km/h 22.5 km/h 16% 0 mm 0.0 W/m2
20:43 30.8 °C 2.1 °C 1005 hPa SSW 20.9 km/h 22.5 km/h 16% 0 mm 0.0 W/m2
20:52 30.5 °C 1.8 °C 1005.3 hPa SSW 24.1 km/h 25.7 km/h 16% 0 mm 0.0 W/m2
21:17 29.6 °C 2.8 °C 1005.6 hPa SSW 17.7 km/h 22.5 km/h 18% 0 mm 0.0 W/m2
21:27 29.3 °C 2.5 °C 1005.6 hPa SSW 19.5 km/h 24.1 km/h 18% 0 mm 0.0 W/m2
21:33 29.2 °C 3.2 °C 1005.6 hPa SSW 13 km/h 22.5 km/h 19% 0 mm 0.0 W/m2
21:46 28.7 °C 2.8 °C 1006 hPa SW 17.7 km/h 24.1 km/h 19% 0 mm 0.0 W/m2
21:55 28.4 °C 3.3 °C 1006.3 hPa SSW 19.5 km/h 24.1 km/h 20% 0 mm 0.0 W/m2
22:01 28.3 °C 3.2 °C 1006.3 hPa SSW 14.3 km/h 20.9 km/h 20% 0 mm 0.0 W/m2
22:10 28.2 °C 3.1 °C 1006.3 hPa SSW 14.3 km/h 22.5 km/h 20% 0 mm 0.0 W/m2
22:15 28.1 °C 3 °C 1006.3 hPa SSW 16.3 km/h 25.7 km/h 20% 0 mm 0.0 W/m2
22:30 27.9 °C 2.9 °C 1006.7 hPa SSW 17.7 km/h 17.7 km/h 20% 0 mm 0.0 W/m2
22:56 27.7 °C 3.4 °C 1006.7 hPa South 13 km/h 24.1 km/h 21% 0 mm 0.0 W/m2
23:07 27.5 °C 3.2 °C 1007 hPa South 16.3 km/h 24.1 km/h 21% 0 mm 0.0 W/m2
23:24 27.1 °C 2.9 °C 1007 hPa SSW 13 km/h 16.1 km/h 21% 0 mm 0.0 W/m2
23:33 26.9 °C 2.7 °C 1007.3 hPa SW 17.7 km/h 17.7 km/h 21% 0 mm 0.0 W/m2
23:42 26.7 °C 3.2 °C 1007.3 hPa SW 11.1 km/h 14.5 km/h 22% 0 mm 0.0 W/m2
23:46 26.5 °C 3.1 °C 1007.3 hPa SW 9.7 km/h 16.1 km/h 22% 0 mm 0.0 W/m2
Canyon Roadhouse, Fishriver Canyon, Namibia
Compliments of Weather Underground - 2.25 mb